Time;durP1;ratioP1;P1;durP2;ratioP2;P2;SDS_P1;SDS_P2;PMS_P1;PMS_P2;Temp;Humidity;BMP_temperature;BMP_pressure;BME280_temperature;BME280_humidity;BME280_pressure;Samples;Min_cycle;Max_cycle;Signal;HPM_P1;HPM_P2
2021/12/26 00:01:17;;;;;;;17.88;7.10;;;20.80;49.40;;;;;;4493364;31;20129;-71
2021/12/26 00:03:46;;;;;;;16.23;5.85;;;20.70;49.50;;;;;;4497060;31;20166;-72
2021/12/26 00:06:21;;;;;;;17.20;5.65;;;20.70;49.60;;;;;;4496178;31;20227;-72
2021/12/26 00:08:48;;;;;;;18.83;6.03;;;20.70;49.70;;;;;;4498365;31;20148;-71
2021/12/26 00:11:15;;;;;;;17.23;6.05;;;20.60;49.80;;;;;;4495716;31;20532;-72
2021/12/26 00:13:42;;;;;;;14.00;6.28;;;20.60;49.80;;;;;;4496950;31;20117;-71
2021/12/26 00:16:08;;;;;;;13.48;5.43;;;20.50;49.90;;;;;;4496055;31;20140;-71
2021/12/26 00:18:35;;;;;;;16.10;5.95;;;20.40;49.90;;;;;;4496282;31;20325;-71
2021/12/26 00:21:02;;;;;;;15.73;5.45;;;20.40;50.00;;;;;;4496769;31;20133;-71
2021/12/26 00:23:28;;;;;;;12.85;5.43;;;20.40;50.10;;;;;;4495756;31;20140;-71
2021/12/26 00:25:54;;;;;;;13.05;5.72;;;20.30;50.10;;;;;;4483954;31;20184;-71
2021/12/26 00:28:21;;;;;;;10.57;5.47;;;20.30;50.20;;;;;;4495594;31;20267;-71
2021/12/26 00:30:47;;;;;;;14.55;5.63;;;20.30;50.30;;;;;;4496409;31;20589;-71
2021/12/26 00:33:13;;;;;;;12.18;4.95;;;20.20;50.20;;;;;;4482709;31;20131;-71
2021/12/26 00:35:40;;;;;;;13.00;5.43;;;20.20;50.40;;;;;;4482854;31;20246;-71
2021/12/26 00:38:07;;;;;;;15.90;5.40;;;20.20;50.40;;;;;;4496222;31;20151;-71
2021/12/26 00:40:33;;;;;;;13.10;4.50;;;20.10;50.40;;;;;;4496851;31;20121;-71
2021/12/26 00:42:58;;;;;;;9.98;4.75;;;20.10;50.40;;;;;;4483422;31;20133;-71
2021/12/26 00:45:25;;;;;;;10.40;4.68;;;20.10;50.50;;;;;;4482429;31;20550;-71
2021/12/26 00:47:51;;;;;;;10.95;4.68;;;20.00;50.50;;;;;;4496204;31;20140;-71
2021/12/26 00:50:21;;;;;;;14.45;4.65;;;20.00;50.60;;;;;;4495493;31;20143;-71
2021/12/26 00:52:48;;;;;;;12.43;4.68;;;20.00;50.70;;;;;;4495750;31;20144;-71
2021/12/26 00:55:16;;;;;;;11.35;4.20;;;19.90;50.60;;;;;;4469981;31;20615;-72
2021/12/26 00:57:42;;;;;;;10.68;4.60;;;19.90;50.70;;;;;;4496571;31;20175;-71
2021/12/26 01:00:14;;;;;;;9.13;4.07;;;19.90;50.80;;;;;;4470001;31;20148;-71
2021/12/26 01:02:42;;;;;;;9.65;4.40;;;19.80;50.80;;;;;;4495583;31;20140;-71
2021/12/26 01:05:09;;;;;;;9.93;4.05;;;19.80;50.90;;;;;;4497093;31;20148;-71
2021/12/26 01:07:56;;;;;;;7.97;3.95;;;19.70;50.80;;;;;;4482579;31;20238;-71
2021/12/26 01:10:25;;;;;;;9.00;4.18;;;19.70;50.90;;;;;;4495040;31;20144;-71
2021/12/26 01:12:54;;;;;;;10.82;4.32;;;19.60;50.90;;;;;;4495933;31;20124;-71
2021/12/26 01:15:22;;;;;;;8.07;3.80;;;19.60;50.90;;;;;;4494718;31;20128;-71
2021/12/26 01:17:55;;;;;;;7.95;3.88;;;19.60;51.00;;;;;;4496116;31;20247;-71
2021/12/26 01:21:15;;;;;;;9.40;4.20;;;19.60;51.00;;;;;;4495365;31;20140;-71
2021/12/26 01:23:24;;;;;;;10.18;4.10;;;19.60;51.10;;;;;;4493913;31;20144;-71
2021/12/26 01:25:51;;;;;;;9.43;3.95;;;19.50;51.00;;;;;;4496035;31;20136;-71
2021/12/26 01:28:19;;;;;;;9.40;3.50;;;19.50;51.10;;;;;;4494552;31;20416;-71
2021/12/26 01:30:45;;;;;;;9.32;3.55;;;19.40;51.10;;;;;;4495522;31;20175;-71
2021/12/26 01:33:15;;;;;;;10.30;3.92;;;19.40;51.10;;;;;;4481958;31;20699;-71
2021/12/26 01:35:42;;;;;;;9.88;3.42;;;19.40;51.10;;;;;;4495061;31;20140;-71
2021/12/26 01:38:13;;;;;;;8.23;3.53;;;19.40;51.20;;;;;;4495791;31;20478;-71
2021/12/26 01:40:47;;;;;;;8.90;3.97;;;19.30;51.20;;;;;;4481841;31;20127;-71
2021/12/26 01:43:14;;;;;;;6.45;3.40;;;19.30;51.20;;;;;;4495648;31;20262;-71
2021/12/26 01:45:41;;;;;;;7.15;3.20;;;19.30;51.20;;;;;;4494825;31;20140;-71
2021/12/26 01:48:08;;;;;;;9.93;3.40;;;19.30;51.30;;;;;;4495178;31;20139;-71
2021/12/26 01:50:36;;;;;;;7.15;3.50;;;19.30;51.30;;;;;;4481966;31;20133;-71
2021/12/26 01:53:05;;;;;;;10.88;3.45;;;19.30;51.30;;;;;;4494589;31;20262;-71
2021/12/26 01:55:44;;;;;;;6.55;3.13;;;19.20;51.30;;;;;;4495314;31;20129;-71
2021/12/26 01:58:17;;;;;;;7.07;3.13;;;19.20;51.30;;;;;;4494489;31;20124;-70
2021/12/26 02:00:46;;;;;;;8.60;3.53;;;19.20;51.30;;;;;;4495180;31;20128;-70
2021/12/26 02:03:12;;;;;;;6.43;3.10;;;19.20;51.40;;;;;;4496038;31;20132;-71
2021/12/26 02:05:38;;;;;;;5.95;3.25;;;19.10;51.30;;;;;;4494302;31;20282;-70
2021/12/26 02:08:05;;;;;;;5.57;3.08;;;19.10;51.30;;;;;;4482088;31;20201;-70
2021/12/26 02:10:31;;;;;;;7.55;2.85;;;19.10;51.30;;;;;;4480961;31;20136;-70
2021/12/26 02:12:57;;;;;;;5.72;2.92;;;19.10;51.40;;;;;;4495234;31;20127;-71
2021/12/26 02:15:23;;;;;;;5.65;2.90;;;19.00;51.30;;;;;;4494194;31;20167;-70
2021/12/26 02:17:50;;;;;;;8.32;3.40;;;19.00;51.40;;;;;;4495886;31;20263;-70
2021/12/26 02:20:36;;;;;;;6.97;2.67;;;19.00;51.40;;;;;;4481584;31;20155;-70
2021/12/26 02:23:11;;;;;;;6.75;3.10;;;19.00;51.30;;;;;;4494574;31;20124;-70
2021/12/26 02:28:10;;;;;;;5.28;2.90;;;18.90;51.30;;;;;;4494143;31;20262;-71
2021/12/26 02:30:39;;;;;;;5.05;2.60;;;18.90;51.30;;;;;;4494587;31;20143;-70
2021/12/26 02:33:08;;;;;;;5.47;2.60;;;18.90;51.30;;;;;;4494173;31;20232;-70
2021/12/26 02:35:34;;;;;;;4.90;2.47;;;18.90;51.30;;;;;;4494178;31;20128;-71
2021/12/26 02:38:01;;;;;;;5.88;2.55;;;18.80;51.30;;;;;;4494545;31;20142;-71
2021/12/26 02:40:27;;;;;;;5.97;2.33;;;18.80;51.30;;;;;;4480619;31;20137;-70
2021/12/26 02:42:53;;;;;;;5.65;2.40;;;18.70;51.30;;;;;;4494938;31;20120;-71
2021/12/26 02:45:19;;;;;;;7.35;2.58;;;18.70;51.20;;;;;;4493678;31;20139;-70
2021/12/26 02:47:48;;;;;;;4.45;2.50;;;18.70;51.20;;;;;;4494209;31;20136;-70
2021/12/26 02:50:17;;;;;;;4.82;2.30;;;18.70;51.30;;;;;;4481088;31;20124;-70
2021/12/26 02:52:44;;;;;;;4.70;2.20;;;18.70;51.30;;;;;;4493619;31;20137;-71
2021/12/26 02:55:14;;;;;;;4.20;2.33;;;18.70;51.30;;;;;;4481663;31;20191;-70
2021/12/26 02:57:41;;;;;;;4.30;2.30;;;18.70;51.20;;;;;;4493588;31;20121;-70
2021/12/26 03:00:13;;;;;;;5.70;2.70;;;18.60;51.20;;;;;;4481739;31;20129;-71
2021/12/26 03:02:46;;;;;;;4.63;2.25;;;18.60;51.20;;;;;;4493334;31;20124;-70
2021/12/26 03:05:13;;;;;;;7.63;2.65;;;18.60;51.30;;;;;;4495077;31;20194;-70
2021/12/26 03:07:41;;;;;;;6.68;2.60;;;18.60;51.30;;;;;;4493685;31;20136;-70
2021/12/26 03:10:11;;;;;;;4.53;2.20;;;18.50;51.20;;;;;;4493587;31;20125;-70
2021/12/26 03:12:41;;;;;;;4.55;1.98;;;18.50;51.20;;;;;;4495200;31;20668;-70
2021/12/26 03:15:10;;;;;;;3.83;2.13;;;18.50;51.20;;;;;;4493455;31;20147;-70
2021/12/26 03:17:37;;;;;;;3.72;2.00;;;18.50;51.30;;;;;;4480997;31;20152;-70
2021/12/26 03:20:08;;;;;;;3.83;2.08;;;18.50;51.30;;;;;;4480446;31;20132;-70
2021/12/26 03:22:33;;;;;;;3.83;2.00;;;18.50;51.30;;;;;;4494428;31;20129;-70
2021/12/26 03:24:59;;;;;;;3.53;1.83;;;18.40;51.20;;;;;;4480764;31;20131;-70
2021/12/26 03:27:25;;;;;;;3.28;1.75;;;18.40;51.20;;;;;;4480309;31;20141;-70
2021/12/26 03:29:51;;;;;;;4.63;2.17;;;18.40;51.20;;;;;;4493922;31;20148;-70
2021/12/26 03:32:17;;;;;;;3.95;1.98;;;18.40;51.30;;;;;;4493134;31;20124;-70
2021/12/26 03:34:48;;;;;;;4.90;2.28;;;18.30;51.30;;;;;;4480901;31;20194;-70
2021/12/26 03:37:15;;;;;;;5.82;2.08;;;18.30;51.20;;;;;;4493227;31;20159;-70
2021/12/26 03:39:41;;;;;;;4.20;2.03;;;18.30;51.30;;;;;;4480325;31;20117;-70
2021/12/26 03:42:07;;;;;;;3.75;1.80;;;18.30;51.30;;;;;;4480699;32;20466;-70
2021/12/26 03:44:33;;;;;;;3.08;1.90;;;18.30;51.30;;;;;;4480194;32;20133;-70
2021/12/26 03:46:59;;;;;;;4.57;2.03;;;18.30;51.20;;;;;;4495181;31;20133;-70
2021/12/26 03:49:26;;;;;;;2.83;1.70;;;18.30;51.20;;;;;;4493378;32;20128;-70
2021/12/26 03:51:52;;;;;;;4.05;2.08;;;18.20;51.20;;;;;;4493745;32;20132;-70
2021/12/26 03:54:18;;;;;;;2.95;1.67;;;18.20;51.20;;;;;;4497154;31;20164;-70
2021/12/26 03:56:44;;;;;;;4.57;1.80;;;18.20;51.20;;;;;;4506974;31;20660;-70
2021/12/26 03:59:11;;;;;;;3.40;1.63;;;18.20;51.30;;;;;;4494015;31;20245;-70
2021/12/26 04:01:37;;;;;;;2.75;1.60;;;18.10;51.10;;;;;;4479750;31;20140;-70
2021/12/26 04:04:03;;;;;;;3.28;1.40;;;18.10;51.10;;;;;;4494033;31;20129;-70
2021/12/26 04:06:29;;;;;;;3.75;1.67;;;18.10;51.10;;;;;;4492817;32;20140;-70
2021/12/26 04:08:56;;;;;;;2.75;1.30;;;18.10;51.10;;;;;;4493776;31;20282;-70
2021/12/26 04:11:23;;;;;;;3.33;1.70;;;18.10;51.10;;;;;;4494002;32;20120;-70
2021/12/26 04:13:49;;;;;;;3.08;1.50;;;18.10;51.00;;;;;;4493347;31;20117;-70
2021/12/26 04:16:15;;;;;;;3.22;1.50;;;18.00;51.00;;;;;;4493407;32;20190;-70
2021/12/26 04:18:41;;;;;;;3.83;1.67;;;18.00;51.00;;;;;;4479735;32;20152;-70
2021/12/26 04:21:07;;;;;;;1.98;1.50;;;18.00;51.00;;;;;;4493755;32;20722;-70
2021/12/26 04:23:34;;;;;;;3.70;1.60;;;18.00;51.00;;;;;;4479632;32;20129;-70
2021/12/26 04:26:00;;;;;;;2.17;1.40;;;17.90;50.90;;;;;;4480604;32;20592;-70
2021/12/26 04:28:26;;;;;;;4.07;1.50;;;17.90;50.90;;;;;;4505944;31;20136;-70
2021/12/26 04:30:53;;;;;;;2.13;1.33;;;17.90;51.00;;;;;;4480151;32;20132;-70
2021/12/26 04:33:21;;;;;;;2.67;1.60;;;17.90;50.90;;;;;;4493154;32;20206;-70
2021/12/26 04:35:47;;;;;;;2.90;1.55;;;17.90;50.90;;;;;;4492941;32;20144;-70
2021/12/26 04:38:13;;;;;;;2.05;1.40;;;17.90;50.90;;;;;;4493638;31;20133;-70
2021/12/26 04:40:39;;;;;;;2.75;1.55;;;17.90;50.90;;;;;;4479841;32;20148;-70
2021/12/26 04:43:05;;;;;;;1.95;1.05;;;17.80;50.90;;;;;;4493365;31;20143;-70
2021/12/26 04:45:31;;;;;;;4.00;1.63;;;17.80;50.80;;;;;;4492803;31;20137;-70
2021/12/26 04:48:00;;;;;;;1.80;1.13;;;17.80;50.80;;;;;;4506347;31;20140;-70
2021/12/26 04:50:27;;;;;;;2.03;1.40;;;17.80;50.80;;;;;;4483320;31;20147;-70
2021/12/26 04:52:54;;;;;;;1.85;1.17;;;17.70;51.70;;;;;;4495813;31;20145;-70
2021/12/26 04:55:23;;;;;;;2.75;1.40;;;17.70;50.70;;;;;;4496372;31;20151;-71
2021/12/26 04:57:50;;;;;;;1.60;1.10;;;17.70;50.70;;;;;;4496324;31;20148;-70
2021/12/26 05:00:20;;;;;;;2.85;1.25;;;17.70;50.70;;;;;;4483606;31;20135;-70
2021/12/26 05:02:50;;;;;;;2.25;1.30;;;17.60;50.60;;;;;;4508266;31;20143;-70
2021/12/26 05:05:16;;;;;;;3.47;1.45;;;17.60;50.60;;;;;;4495960;31;20136;-70
2021/12/26 05:07:43;;;;;;;2.45;1.33;;;17.70;50.70;;;;;;4496087;31;20129;-71
2021/12/26 05:10:12;;;;;;;2.97;1.17;;;17.60;50.60;;;;;;4508397;31;20129;-70
2021/12/26 05:12:39;;;;;;;2.20;1.10;;;17.60;50.50;;;;;;4496061;31;20152;-70
2021/12/26 05:15:08;;;;;;;2.40;1.02;;;17.60;50.60;;;;;;4481908;31;20132;-70
2021/12/26 05:17:33;;;;;;;1.67;1.10;;;17.60;50.60;;;;;;4496125;31;20144;-70
2021/12/26 05:19:59;;;;;;;1.70;1.05;;;17.60;50.60;;;;;;4496130;31;20129;-70
2021/12/26 05:22:25;;;;;;;2.92;1.10;;;17.50;50.50;;;;;;4482272;31;20201;-70
2021/12/26 05:24:52;;;;;;;3.15;1.30;;;17.50;50.50;;;;;;4482523;31;20104;-69
2021/12/26 05:27:18;;;;;;;2.03;1.13;;;17.50;50.60;;;;;;4508419;31;20687;-70
2021/12/26 05:29:44;;;;;;;2.13;1.02;;;17.50;50.70;;;;;;4509210;31;20120;-70
2021/12/26 05:32:09;;;;;;;2.55;1.10;;;17.50;50.70;;;;;;4507922;31;20136;-70
2021/12/26 05:34:35;;;;;;;1.77;0.95;;;17.40;50.60;;;;;;4496066;31;20117;-70
2021/12/26 05:37:01;;;;;;;2.25;1.20;;;17.40;50.60;;;;;;4481649;31;20190;-70
2021/12/26 05:39:27;;;;;;;1.77;1.10;;;17.40;50.60;;;;;;4508615;31;20132;-70
2021/12/26 05:41:53;;;;;;;2.50;1.20;;;17.40;50.60;;;;;;4482030;31;20117;-70
2021/12/26 05:44:19;;;;;;;1.98;1.05;;;17.40;50.60;;;;;;4494892;31;20120;-70
2021/12/26 05:46:45;;;;;;;1.85;1.05;;;17.40;50.60;;;;;;4482534;31;20109;-69
2021/12/26 05:49:12;;;;;;;2.15;1.15;;;17.40;50.60;;;;;;4481310;31;20140;-69
2021/12/26 05:51:39;;;;;;;1.70;0.80;;;17.40;50.60;;;;;;4496700;31;20194;-70
2021/12/26 05:54:06;;;;;;;1.98;1.10;;;17.30;50.60;;;;;;4494611;31;20258;-70
2021/12/26 05:56:32;;;;;;;1.95;0.95;;;17.30;50.50;;;;;;4496122;31;20133;-70
2021/12/26 05:58:58;;;;;;;2.50;1.10;;;17.30;50.60;;;;;;4481709;31;20132;-70
2021/12/26 06:01:24;;;;;;;2.22;1.00;;;17.30;50.60;;;;;;4494416;31;20132;-70
2021/12/26 06:03:50;;;;;;;1.77;1.00;;;17.30;50.70;;;;;;4495600;31;20162;-70
2021/12/26 06:06:16;;;;;;;1.73;1.08;;;17.30;50.70;;;;;;4494295;31;20146;-70
2021/12/26 06:08:42;;;;;;;1.85;1.02;;;17.30;50.70;;;;;;4495358;31;20133;-70
2021/12/26 06:11:09;;;;;;;1.92;1.15;;;17.30;50.70;;;;;;4494073;31;20573;-70
2021/12/26 06:13:35;;;;;;;1.45;1.13;;;17.20;51.40;;;;;;4495797;31;20230;-70
2021/12/26 06:16:01;;;;;;;2.15;1.13;;;17.20;50.70;;;;;;4481435;31;20974;-70
2021/12/26 06:18:27;;;;;;;2.50;1.00;;;17.20;50.70;;;;;;4494432;31;20191;-70
2021/12/26 06:20:53;;;;;;;1.52;0.90;;;17.20;50.80;;;;;;4495315;31;20132;-70
2021/12/26 06:23:19;;;;;;;1.20;0.75;;;17.20;50.80;;;;;;4493942;31;20132;-70
2021/12/26 06:25:45;;;;;;;1.27;0.80;;;17.20;50.80;;;;;;4495290;31;20190;-70
2021/12/26 06:28:11;;;;;;;2.40;1.10;;;17.10;50.70;;;;;;4493783;31;20213;-70
2021/12/26 06:30:37;;;;;;;1.98;1.27;;;17.10;50.70;;;;;;4494775;31;20140;-70
2021/12/26 06:33:04;;;;;;;1.58;1.02;;;17.10;50.70;;;;;;4495042;31;20159;-69
2021/12/26 06:35:30;;;;;;;1.67;1.08;;;17.10;50.70;;;;;;4507620;31;20139;-70
2021/12/26 06:37:56;;;;;;;1.85;1.00;;;17.10;50.70;;;;;;4494816;31;20577;-70
2021/12/26 06:40:22;;;;;;;1.90;1.05;;;17.10;50.70;;;;;;4480658;31;20603;-69
2021/12/26 06:42:50;;;;;;;1.60;0.90;;;17.10;50.70;;;;;;4494864;31;20289;-70
2021/12/26 06:45:18;;;;;;;1.58;1.02;;;17.10;50.70;;;;;;4480708;31;20132;-70
2021/12/26 06:47:51;;;;;;;1.35;0.93;;;17.00;50.60;;;;;;4495661;31;20134;-70
2021/12/26 06:50:18;;;;;;;2.00;0.90;;;17.00;50.60;;;;;;4507301;31;20225;-70
2021/12/26 06:52:44;;;;;;;1.20;0.85;;;17.00;50.60;;;;;;4494988;31;20132;-70
2021/12/26 06:55:10;;;;;;;4.15;1.10;;;17.00;50.60;;;;;;4494405;31;20274;-69
2021/12/26 06:57:37;;;;;;;1.52;0.90;;;17.00;50.60;;;;;;4493646;31;20132;-70
2021/12/26 07:00:14;;;;;;;1.40;0.90;;;17.00;50.60;;;;;;4481325;31;20138;-69
2021/12/26 07:02:42;;;;;;;1.58;1.10;;;16.90;50.50;;;;;;4506781;31;20143;-70
2021/12/26 07:05:11;;;;;;;1.63;0.88;;;17.00;50.60;;;;;;4507165;31;20605;-70
2021/12/26 07:07:37;;;;;;;1.67;0.80;;;16.90;50.60;;;;;;4507441;31;20190;-70
2021/12/26 07:10:04;;;;;;;1.42;0.90;;;16.90;50.60;;;;;;4480742;31;20249;-70
2021/12/26 07:12:31;;;;;;;1.88;0.82;;;16.90;50.60;;;;;;4480702;31;20182;-70
2021/12/26 07:14:57;;;;;;;1.90;0.98;;;16.90;50.60;;;;;;4493738;31;20140;-69
2021/12/26 07:17:23;;;;;;;1.23;0.82;;;16.90;50.50;;;;;;4493994;31;20143;-70
2021/12/26 07:19:49;;;;;;;2.33;1.02;;;16.90;50.60;;;;;;4493656;31;20129;-70
2021/12/26 07:22:15;;;;;;;1.35;0.75;;;16.80;50.60;;;;;;4493809;31;20525;-70
2021/12/26 07:24:43;;;;;;;1.10;0.73;;;16.90;50.60;;;;;;4507051;31;20164;-70
2021/12/26 07:27:13;;;;;;;1.45;0.70;;;16.80;50.50;;;;;;4480433;31;20112;-70
2021/12/26 07:29:40;;;;;;;1.58;0.70;;;16.80;50.50;;;;;;4494705;31;20275;-70
2021/12/26 07:32:07;;;;;;;1.50;0.77;;;16.80;50.50;;;;;;4506525;31;20190;-70
2021/12/26 07:34:34;;;;;;;1.33;0.90;;;16.80;50.50;;;;;;4494120;31;20295;-70
2021/12/26 07:37:01;;;;;;;1.77;0.77;;;16.80;50.60;;;;;;4493478;31;20136;-70
2021/12/26 07:39:27;;;;;;;1.10;0.70;;;16.80;50.60;;;;;;4493516;31;20121;-70
2021/12/26 07:41:53;;;;;;;1.35;0.88;;;16.80;50.60;;;;;;4507276;31;20128;-70
2021/12/26 07:44:19;;;;;;;1.75;0.90;;;16.70;50.50;;;;;;4492925;31;20271;-70
2021/12/26 07:46:45;;;;;;;1.10;0.60;;;16.70;50.60;;;;;;4494083;32;20154;-71
2021/12/26 07:49:11;;;;;;;1.20;0.90;;;16.70;50.50;;;;;;4492927;32;20116;-69
2021/12/26 07:51:38;;;;;;;2.08;0.63;;;16.70;50.50;;;;;;4493988;32;20121;-70
2021/12/26 07:54:03;;;;;;;1.00;0.65;;;16.70;50.60;;;;;;4494455;32;20613;-70
2021/12/26 07:56:31;;;;;;;1.67;0.68;;;16.70;50.60;;;;;;4506618;31;20171;-70
2021/12/26 07:58:57;;;;;;;1.58;0.95;;;16.70;50.60;;;;;;4494767;32;20555;-70
2021/12/26 08:01:26;;;;;;;1.40;1.08;;;16.70;50.60;;;;;;4492852;32;20143;-70
2021/12/26 08:03:52;;;;;;;1.50;0.70;;;16.60;50.50;;;;;;4494081;32;20267;-70
2021/12/26 08:06:20;;;;;;;1.40;0.77;;;16.60;50.60;;;;;;4479764;32;20109;-70
2021/12/26 08:08:49;;;;;;;1.65;0.80;;;16.60;50.60;;;;;;4495197;32;20128;-70
2021/12/26 08:11:16;;;;;;;1.15;0.60;;;16.60;50.60;;;;;;4505950;31;20140;-69
2021/12/26 08:13:43;;;;;;;1.35;0.70;;;16.60;50.60;;;;;;4493379;32;20234;-70
2021/12/26 08:16:09;;;;;;;1.02;0.68;;;16.60;50.60;;;;;;4493787;31;20129;-70
2021/12/26 08:18:35;;;;;;;1.88;0.80;;;16.60;51.50;;;;;;4492900;31;20226;-70
2021/12/26 08:21:01;;;;;;;1.23;0.80;;;16.50;50.50;;;;;;4494944;32;20120;-70
2021/12/26 08:23:27;;;;;;;1.15;0.60;;;16.50;50.50;;;;;;4481203;31;20136;-70
2021/12/26 08:25:54;;;;;;;1.13;0.70;;;16.50;50.50;;;;;;4496926;31;20141;-70
2021/12/26 08:28:21;;;;;;;1.60;0.73;;;16.50;50.50;;;;;;4508905;31;20144;-69
2021/12/26 08:30:49;;;;;;;1.98;0.68;;;16.50;50.50;;;;;;4496257;31;20143;-70
2021/12/26 08:33:16;;;;;;;1.05;0.70;;;16.50;50.50;;;;;;4497280;31;20254;-69
2021/12/26 08:35:44;;;;;;;2.20;0.77;;;16.50;50.50;;;;;;4482903;31;20164;-70
2021/12/26 08:38:11;;;;;;;1.52;0.70;;;16.50;50.50;;;;;;4497744;31;20221;-70
2021/12/26 08:40:37;;;;;;;1.08;0.80;;;16.50;50.50;;;;;;4496261;31;20164;-69
2021/12/26 08:43:03;;;;;;;1.02;0.63;;;16.40;50.40;;;;;;4496939;31;20139;-70
2021/12/26 08:45:29;;;;;;;1.45;0.80;;;16.40;51.40;;;;;;4482533;31;20140;-69
2021/12/26 08:47:56;;;;;;;0.90;0.80;;;16.40;50.40;;;;;;4483134;31;20125;-70
2021/12/26 08:50:25;;;;;;;4.55;0.80;;;16.40;50.40;;;;;;4495959;31;20121;-65
2021/12/26 08:52:51;;;;;;;1.48;1.00;;;16.40;50.50;;;;;;4495643;31;20605;-65
2021/12/26 08:55:19;;;;;;;1.52;1.00;;;16.30;49.70;;;;;;4496626;31;20129;-65
2021/12/26 08:57:47;;;;;;;15.20;1.42;;;16.30;48.50;;;;;;4496572;31;20415;-68
2021/12/26 09:00:15;;;;;;;2.15;1.00;;;16.20;46.90;;;;;;4496104;31;20146;-69
2021/12/26 09:02:41;;;;;;;2.65;1.35;;;16.20;46.80;;;;;;4496191;31;20148;-68
2021/12/26 09:05:10;;;;;;;3.67;1.15;;;16.20;47.40;;;;;;4495967;31;20143;-68
2021/12/26 09:07:37;;;;;;;3.95;1.08;;;16.20;48.20;;;;;;4508403;31;20678;-68
2021/12/26 09:10:05;;;;;;;1.67;0.90;;;16.20;48.40;;;;;;4494972;31;20498;-67
2021/12/26 09:12:31;;;;;;;2.38;0.80;;;16.20;48.10;;;;;;4497452;31;20250;-67
2021/12/26 09:14:58;;;;;;;2.22;1.00;;;16.30;48.10;;;;;;4495776;31;20151;-68
2021/12/26 09:17:24;;;;;;;1.85;1.02;;;16.40;48.10;;;;;;4495386;31;20129;-66
2021/12/26 09:19:50;;;;;;;2.00;0.82;;;16.40;48.10;;;;;;4496993;31;20333;-67
2021/12/26 09:22:17;;;;;;;2.30;0.98;;;16.50;48.10;;;;;;4497809;31;20136;-69
2021/12/26 09:24:45;;;;;;;2.38;0.88;;;16.60;48.00;;;;;;4482576;31;20241;-68
2021/12/26 09:27:13;;;;;;;2.70;1.00;;;16.60;48.00;;;;;;4494784;31;20140;-69
2021/12/26 09:29:40;;;;;;;1.42;0.75;;;16.80;47.80;;;;;;4495332;31;20144;-69
2021/12/26 09:32:07;;;;;;;1.50;0.80;;;16.90;47.70;;;;;;4494209;31;20308;-69
2021/12/26 09:34:34;;;;;;;2.55;0.90;;;17.10;47.30;;;;;;4494716;31;20282;-69
2021/12/26 09:37:02;;;;;;;2.22;0.80;;;17.20;47.10;;;;;;4494099;31;20632;-68
2021/12/26 09:39:28;;;;;;;1.35;0.70;;;17.40;46.80;;;;;;4505645;31;20128;-69
2021/12/26 09:41:54;;;;;;;3.72;0.90;;;17.50;46.60;;;;;;4481934;31;20265;-68
2021/12/26 09:44:21;;;;;;;1.60;0.90;;;17.60;46.40;;;;;;4494951;31;20141;-69
2021/12/26 09:46:48;;;;;;;1.88;0.80;;;17.70;46.30;;;;;;4495797;31;20121;-69
2021/12/26 09:49:14;;;;;;;1.88;0.80;;;17.80;46.10;;;;;;4494607;31;20145;-69
2021/12/26 09:51:40;;;;;;;2.15;0.90;;;17.90;45.90;;;;;;4495394;31;20159;-69
2021/12/26 09:54:08;;;;;;;1.88;0.80;;;18.00;45.60;;;;;;4494981;31;20191;-69
2021/12/26 09:56:35;;;;;;;3.00;0.85;;;18.10;45.40;;;;;;4494947;31;20139;-68
2021/12/26 09:59:05;;;;;;;3.85;0.80;;;18.20;45.10;;;;;;4482349;31;20528;-69
2021/12/26 10:01:57;;;;;;;3.35;0.68;;;18.30;45.00;;;;;;4495400;31;20116;-69
2021/12/26 10:04:34;;;;;;;2.10;0.90;;;18.40;44.80;;;;;;4495654;31;20597;-69
2021/12/26 10:07:07;;;;;;;2.05;0.73;;;18.50;45.10;;;;;;4495708;31;20132;-67
2021/12/26 10:09:36;;;;;;;1.38;0.70;;;18.60;44.80;;;;;;4495562;31;20557;-68
2021/12/26 10:12:04;;;;;;;6.10;0.70;;;18.60;44.60;;;;;;4494927;31;20128;-68
2021/12/26 10:14:34;;;;;;;1.98;0.90;;;18.70;44.70;;;;;;4481060;31;20116;-68
2021/12/26 10:17:02;;;;;;;1.70;0.40;;;18.80;44.70;;;;;;4482807;31;20155;-69
2021/12/26 10:19:34;;;;;;;4.22;0.73;;;18.90;44.80;;;;;;4495421;31;20120;-69
2021/12/26 10:22:01;;;;;;;5.05;0.95;;;19.00;44.70;;;;;;4494870;31;20128;-70
2021/12/26 10:24:36;;;;;;;1.55;0.77;;;19.10;44.40;;;;;;4481540;31;20128;-68
2021/12/26 10:27:19;;;;;;;16.30;1.42;;;19.20;43.70;;;;;;4495487;31;20129;-66
2021/12/26 10:29:54;;;;;;;1.48;0.70;;;19.30;43.50;;;;;;4495074;31;20870;-70
2021/12/26 10:32:26;;;;;;;2.53;0.73;;;19.30;43.30;;;;;;4503620;31;20185;-69
2021/12/26 10:34:53;;;;;;;1.20;0.70;;;19.50;43.20;;;;;;4508141;31;20270;-69
2021/12/26 10:37:21;;;;;;;1.48;0.68;;;19.50;43.00;;;;;;4493929;31;20133;-70
2021/12/26 10:39:51;;;;;;;1.48;0.75;;;19.60;42.90;;;;;;4493474;31;20125;-68
2021/12/26 10:42:20;;;;;;;1.23;0.70;;;19.70;42.90;;;;;;4494616;31;20143;-69
2021/12/26 10:44:51;;;;;;;2.72;0.50;;;19.80;42.80;;;;;;4493332;31;20141;-68
2021/12/26 10:47:23;;;;;;;2.83;0.77;;;19.90;42.70;;;;;;4494813;31;20144;-68
2021/12/26 10:49:58;;;;;;;2.00;0.68;;;20.00;42.80;;;;;;4494647;31;20132;-69
2021/12/26 10:52:32;;;;;;;1.80;0.80;;;20.00;42.70;;;;;;4495143;31;20571;-69
2021/12/26 10:55:09;;;;;;;2.17;0.60;;;20.10;42.80;;;;;;4494237;31;20141;-74
2021/12/26 10:57:41;;;;;;;3.50;1.52;;;20.10;42.80;;;;;;4494497;31;20270;-69
2021/12/26 11:00:17;;;;;;;1.75;0.55;;;20.20;42.70;;;;;;4494462;31;20183;-69
2021/12/26 11:02:50;;;;;;;1.60;0.95;;;20.20;42.70;;;;;;4494825;31;20274;-67
2021/12/26 11:05:20;;;;;;;1.40;0.70;;;20.30;42.00;;;;;;4494039;31;20267;-69
2021/12/26 11:07:51;;;;;;;3.95;0.98;;;20.30;41.40;;;;;;4494329;31;20109;-69
2021/12/26 11:10:19;;;;;;;1.42;0.70;;;20.30;41.50;;;;;;4494663;31;20166;-68
2021/12/26 11:12:56;;;;;;;6.70;1.02;;;20.30;41.50;;;;;;4494127;31;20722;-68
2021/12/26 11:15:28;;;;;;;1.77;0.80;;;20.40;41.60;;;;;;4493562;31;20189;-68
2021/12/26 11:18:01;;;;;;;2.40;0.60;;;20.40;41.60;;;;;;4494892;31;20139;-68
2021/12/26 11:20:35;;;;;;;3.05;0.90;;;20.40;41.60;;;;;;4494158;31;20266;-71
2021/12/26 11:23:09;;;;;;;1.85;0.85;;;20.40;41.60;;;;;;4492795;31;20199;-68
2021/12/26 11:25:59;;;;;;;1.45;0.70;;;20.50;41.70;;;;;;4494613;31;20143;-67
2021/12/26 11:28:32;;;;;;;1.52;0.80;;;20.50;41.70;;;;;;4493150;31;20278;-68
2021/12/26 11:31:02;;;;;;;1.55;0.70;;;20.60;41.70;;;;;;4494478;31;20249;-69
2021/12/26 11:33:35;;;;;;;2.42;0.70;;;20.60;41.50;;;;;;4494135;31;20151;-67
2021/12/26 11:36:03;;;;;;;1.42;0.60;;;20.70;41.50;;;;;;4479923;31;20197;-68
2021/12/26 11:38:30;;;;;;;1.48;0.80;;;20.70;41.60;;;;;;4494329;31;20378;-69
2021/12/26 11:41:00;;;;;;;1.08;0.50;;;20.70;41.60;;;;;;4479802;31;20132;-68
2021/12/26 11:43:38;;;;;;;1.17;0.70;;;20.80;41.70;;;;;;4493886;31;20133;-69
2021/12/26 11:46:22;;;;;;;1.60;0.73;;;20.80;41.80;;;;;;4493789;31;20229;-71
2021/12/26 11:48:48;;;;;;;;;;;20.80;41.70;;;;;;4495028;32;20173;-69
2021/12/26 11:51:20;;;;;;;2.17;0.40;;;20.80;41.80;;;;;;4494229;32;20024;-69
2021/12/26 11:53:52;;;;;;;1.73;0.70;;;20.90;41.70;;;;;;4493067;32;20135;-67
2021/12/26 11:56:34;;;;;;;7.63;0.68;;;20.90;41.60;;;;;;4493762;32;20179;-69
2021/12/26 11:59:35;;;;;;;1.67;0.63;;;20.80;41.60;;;;;;4496250;31;20120;-69
2021/12/26 12:02:01;;;;;;;1.40;0.77;;;20.90;41.70;;;;;;4497146;31;20178;-69
2021/12/26 12:04:27;;;;;;;1.33;0.70;;;20.90;41.30;;;;;;4484130;31;20125;-69
2021/12/26 12:07:02;;;;;;;1.52;0.65;;;20.90;41.00;;;;;;4482899;31;20140;-70
2021/12/26 12:09:34;;;;;;;0.73;0.50;;;20.90;41.00;;;;;;4495911;31;20174;-70
2021/12/26 12:12:08;;;;;;;1.13;0.70;;;20.80;41.10;;;;;;4497034;31;20146;-69
2021/12/26 12:14:44;;;;;;;1.05;0.70;;;20.80;41.30;;;;;;4496607;31;20139;-68
2021/12/26 12:17:16;;;;;;;1.90;0.70;;;20.60;41.40;;;;;;4496135;31;20124;-70
2021/12/26 12:20:08;;;;;;;1.10;0.50;;;20.50;41.60;;;;;;4496863;31;20246;-69
2021/12/26 12:22:35;;;;;;;1.33;0.80;;;20.40;41.90;;;;;;4509392;31;20337;-69
2021/12/26 12:25:32;;;;;;;3.88;0.90;;;20.30;42.10;;;;;;4483273;31;20214;-70
2021/12/26 12:28:17;;;;;;;1.90;0.88;;;20.10;42.30;;;;;;4507736;31;20132;-69
2021/12/26 12:30:51;;;;;;;1.55;0.90;;;20.10;42.50;;;;;;4507222;31;20229;-69
2021/12/26 12:33:29;;;;;;;2.88;0.70;;;20.00;42.60;;;;;;4512389;31;20139;-69
2021/12/26 12:36:03;;;;;;;1.80;0.70;;;20.00;42.70;;;;;;4498176;31;20132;-69
2021/12/26 12:38:41;;;;;;;0.98;0.60;;;19.90;42.70;;;;;;4507595;31;20151;-68
2021/12/26 12:41:29;;;;;;;1.95;0.80;;;20.00;42.90;;;;;;4496705;31;20121;-68
2021/12/26 12:43:57;;;;;;;1.50;0.63;;;20.00;43.00;;;;;;4495901;31;20140;-68
2021/12/26 12:46:26;;;;;;;1.52;0.60;;;20.00;43.00;;;;;;4496642;31;20241;-69
2021/12/26 12:49:05;;;;;;;1.10;0.60;;;20.00;42.90;;;;;;4495528;31;20136;-67
2021/12/26 12:51:46;;;;;;;1.27;0.90;;;20.10;42.90;;;;;;4496464;31;20146;-67
2021/12/26 12:54:23;;;;;;;1.20;0.60;;;20.10;43.60;;;;;;4495346;31;20701;-67
2021/12/26 12:56:50;;;;;;;2.00;0.70;;;20.20;42.50;;;;;;4495859;31;20211;-68